TAF and METAR

METAR for Puerto Suárez International Airport

SLPS 192000Z 20006KT 9999 BKN015 30/23 Q1009
Report created 19. okt 22:00
wind 6 knots from SSW (200°) visibility > 10km broken clouds (~75% cover) at 1500 feet Temperature 30° with dewpoint at 23° (Humidity 66.25%) Pressure 1009 hPa

TAF for Puerto Suárez International Airport

TAF SLPS 191650Z 1918/2018 19007KT 8000 BKN017 TX30/1920Z TN20/2010Z BECMG 2004/2006 00000KT SCT015 BECMG 2011/2013 04006KT 7000
Report created 19. okt 18:50

between 19. okt 20:00 - 20. okt 20:00

wind 7 knots from S (190°) visibility 8000 meters broken clouds (~75% cover) at 1700 feet Max temperature 30° expected today at around 22 o'clock Min temperature 20° expected tomorrow at around 12 o'clock

becoming between 20. okt 06:00 - 20. okt 08:00

wind 0 knots from N (000°) scattered clouds (~50% cover) at 1500 feet

becoming between 20. okt 13:00 - 20. okt 15:00

wind 6 knots from NE (040°) visibility 7000 meters
Puerto Suárez International Airport in Bolivia at 135m

Latest 5 airports